Terminal Aerodrome Forecast
Issued by NWS

Home | Current Version | Previous Version | Graphics & Text | Print | Product List | Glossary On
Versions: 1 2 3 4 5 6 7 8 9 10 11 12 13 14 15 16 17 18 19 20 21 22 23 24 25 26 27 28 29 30 31
000
FTUS43 KLOT 301600 AAB
TAFDPA
TAF AMD
KDPA 301603Z 3016/3112 20007KT P6SM SCT120 BKN250
     FM301900 23008KT P6SM SCT050 BKN100
     FM302300 27004KT P6SM SCT035 OVC060
     FM310400 30010KT P6SM VCSH BKN012 OVC025
     FM310900 33014G24KT P6SM SCT012 BKN035=

USA.gov is the U.S. government's official web portal to all federal, state and local government web resources and services.